Terminal Aerodrome Forecast
Issued by NWS

Home | Current Version | Previous Version | Text Only | Print | Product List | Glossary Off
Versions: 1 2 3 4 5 6 7 8 9 10 11 12 13 14

000
FTUS43 KMPX 272300
TAFRNH
TAF
KRNH 272331Z 2800/2824 02011G17KT P6SM SCT025 BKN045
     FM280200 01006KT P6SM SCT030 BKN060
     FM281500 33009KT P6SM SCT050=

USA.gov is the U.S. government's official web portal to all federal, state and local government web resources and services.